Time;durP1;ratioP1;P1;durP2;ratioP2;P2;SDS_P1;SDS_P2;PMS_P1;PMS_P2;Temp;Humidity;BMP_temperature;BMP_pressure;BME280_temperature;BME280_humidity;BME280_pressure;Samples;Min_cycle;Max_cycle;Signal;HPM_P1;HPM_P2
2024/01/11 00:00:45;;;;;;;60.92;25.35;;;-6.90;99.90;;;;;;4145751;28;20549;-64
2024/01/11 00:02:46;;;;;;;56.08;23.70;;;-6.90;99.90;;;;;;4145051;28;20026;-59
2024/01/11 00:04:48;;;;;;;58.65;23.27;;;-6.90;99.90;;;;;;4145535;28;20084;-62
2024/01/11 00:06:50;;;;;;;51.55;21.90;;;-7.00;99.90;;;;;;4144448;28;20037;-63
2024/01/11 00:08:51;;;;;;;55.85;23.98;;;-7.00;99.90;;;;;;4146165;28;20092;-62
2024/01/11 00:10:53;;;;;;;61.83;26.90;;;-7.00;99.90;;;;;;4144988;28;20033;-61
2024/01/11 00:12:54;;;;;;;60.60;25.95;;;-7.10;99.90;;;;;;4145317;28;20080;-63
2024/01/11 00:14:55;;;;;;;69.00;28.77;;;-7.10;99.90;;;;;;4144808;28;20034;-63
2024/01/11 00:16:56;;;;;;;60.53;27.75;;;-7.20;99.90;;;;;;4144586;28;20030;-62
2024/01/11 00:18:58;;;;;;;61.33;26.70;;;-7.20;99.90;;;;;;4144827;28;20038;-60
2024/01/11 00:20:59;;;;;;;62.33;26.98;;;-7.30;99.90;;;;;;4144756;28;20030;-64
2024/01/11 00:23:00;;;;;;;70.47;27.50;;;-7.30;99.90;;;;;;4144783;28;20433;-59
2024/01/11 00:25:01;;;;;;;61.75;26.27;;;-7.30;99.90;;;;;;4144681;28;20045;-60
2024/01/11 00:27:02;;;;;;;60.50;26.33;;;-7.40;99.90;;;;;;4145006;28;20104;-63
2024/01/11 00:29:04;;;;;;;63.70;27.63;;;-7.30;99.90;;;;;;4144455;28;20053;-64
2024/01/11 00:31:05;;;;;;;66.20;26.98;;;-7.30;99.90;;;;;;4145160;28;20360;-61
2024/01/11 00:33:06;;;;;;;55.42;25.40;;;-7.30;99.90;;;;;;4144244;28;20084;-63
2024/01/11 00:35:08;;;;;;;55.67;25.33;;;-7.40;99.90;;;;;;4145364;28;20037;-63
2024/01/11 00:37:09;;;;;;;61.80;25.73;;;-7.40;99.90;;;;;;4144463;28;20025;-62
2024/01/11 00:39:11;;;;;;;57.97;25.27;;;-7.40;99.90;;;;;;4145634;28;20120;-62
2024/01/11 00:41:12;;;;;;;62.95;26.50;;;-7.50;99.90;;;;;;4144061;28;20088;-63
2024/01/11 00:43:14;;;;;;;74.65;28.05;;;-7.50;99.90;;;;;;4140300;28;20100;-58
2024/01/11 00:45:15;;;;;;;53.72;24.95;;;-7.50;99.90;;;;;;4142845;28;20049;-61
2024/01/11 00:47:16;;;;;;;64.57;28.15;;;-7.50;99.90;;;;;;4143897;28;20481;-63
2024/01/11 00:49:17;;;;;;;63.90;25.75;;;-7.50;99.90;;;;;;4144418;28;20091;-63
2024/01/11 00:51:19;;;;;;;59.28;26.40;;;-7.50;99.90;;;;;;4144407;28;20061;-61
2024/01/11 00:53:20;;;;;;;64.53;27.20;;;-7.50;99.90;;;;;;4144657;28;20026;-60
2024/01/11 00:55:21;;;;;;;61.28;26.65;;;-7.60;99.90;;;;;;4144415;28;20437;-63
2024/01/11 00:57:22;;;;;;;63.95;27.52;;;-7.60;99.90;;;;;;4144677;28;20092;-63
2024/01/11 00:59:24;;;;;;;64.70;29.15;;;-7.60;99.90;;;;;;4144131;28;20022;-62
2024/01/11 01:01:25;;;;;;;63.35;26.00;;;-7.60;99.90;;;;;;4145126;28;20041;-63
2024/01/11 01:03:26;;;;;;;59.25;26.00;;;-7.60;99.90;;;;;;4143942;28;20034;-63
2024/01/11 01:05:27;;;;;;;67.85;27.98;;;-7.60;99.90;;;;;;4144338;28;20038;-63
2024/01/11 01:07:28;;;;;;;65.15;28.55;;;-7.60;99.90;;;;;;4143665;28;20045;-60
2024/01/11 01:09:30;;;;;;;67.43;28.90;;;-7.60;99.90;;;;;;4145048;28;20042;-64
2024/01/11 01:11:31;;;;;;;62.45;26.77;;;-7.60;99.90;;;;;;4142342;28;20850;-62
2024/01/11 01:13:32;;;;;;;63.17;28.17;;;-7.60;99.90;;;;;;4144178;28;20096;-58
2024/01/11 01:15:34;;;;;;;62.88;26.20;;;-7.60;99.90;;;;;;4143963;28;20025;-64
2024/01/11 01:17:35;;;;;;;70.70;27.30;;;-7.70;99.90;;;;;;4144234;28;20088;-62
2024/01/11 01:19:36;;;;;;;66.90;29.55;;;-7.70;99.90;;;;;;4143968;28;20026;-62
2024/01/11 01:21:37;;;;;;;66.85;27.77;;;-7.70;99.90;;;;;;4143921;28;20544;-63
2024/01/11 01:23:38;;;;;;;70.82;28.73;;;-7.70;99.90;;;;;;4144060;28;20034;-63
2024/01/11 01:25:40;;;;;;;66.07;29.15;;;-7.80;99.90;;;;;;4143462;28;20066;-63
2024/01/11 01:27:41;;;;;;;68.38;26.83;;;-7.80;99.90;;;;;;4143742;28;20454;-60
2024/01/11 01:29:42;;;;;;;67.32;28.05;;;-7.90;99.90;;;;;;4143303;28;20100;-60
2024/01/11 01:31:43;;;;;;;58.60;25.00;;;-7.90;99.90;;;;;;4144531;28;20038;-63
2024/01/11 01:33:45;;;;;;;60.72;26.73;;;-7.90;99.90;;;;;;4143851;28;20065;-62
2024/01/11 01:35:46;;;;;;;57.55;24.60;;;-7.90;99.90;;;;;;4144117;28;20486;-62
2024/01/11 01:37:47;;;;;;;64.55;27.13;;;-7.90;99.90;;;;;;4143839;28;20025;-62
2024/01/11 01:39:48;;;;;;;65.10;26.50;;;-7.80;99.90;;;;;;4144250;28;20026;-62
2024/01/11 01:41:49;;;;;;;64.25;26.40;;;-7.90;99.90;;;;;;4143401;28;20520;-61
2024/01/11 01:43:50;;;;;;;64.80;27.02;;;-7.90;99.90;;;;;;4143612;28;20091;-62
2024/01/11 01:45:52;;;;;;;63.25;26.90;;;-7.80;99.90;;;;;;4144073;28;20038;-63
2024/01/11 01:47:54;;;;;;;62.42;25.27;;;-7.80;99.90;;;;;;4143483;28;20042;-62
2024/01/11 01:49:56;;;;;;;56.92;26.30;;;-7.80;99.90;;;;;;4144008;28;20088;-62
2024/01/11 01:51:57;;;;;;;60.75;25.20;;;-7.80;99.90;;;;;;4143748;28;20030;-64
2024/01/11 01:53:59;;;;;;;72.10;28.23;;;-7.80;99.90;;;;;;4142474;28;20092;-61
2024/01/11 01:56:02;;;;;;;61.90;27.08;;;-7.90;99.90;;;;;;4143512;28;20057;-62
2024/01/11 01:58:04;;;;;;;65.72;27.55;;;-7.90;99.90;;;;;;4146853;28;20033;-63
2024/01/11 02:00:06;;;;;;;59.17;24.92;;;-7.90;99.90;;;;;;4148682;28;20532;-61
2024/01/11 02:02:07;;;;;;;58.03;25.23;;;-7.90;99.90;;;;;;4148182;28;20030;-63
2024/01/11 02:04:08;;;;;;;58.20;25.30;;;-7.90;99.90;;;;;;4149062;28;20080;-62
2024/01/11 02:06:10;;;;;;;54.63;23.52;;;-7.90;99.90;;;;;;4149183;28;20018;-64
2024/01/11 02:08:15;;;;;;;57.75;23.52;;;-7.90;99.90;;;;;;4148937;28;20045;-63
2024/01/11 02:10:17;;;;;;;49.75;22.70;;;-7.90;99.90;;;;;;4149869;28;20046;-63
2024/01/11 02:12:18;;;;;;;50.92;22.10;;;-7.80;99.90;;;;;;4148524;28;20068;-62
2024/01/11 02:14:19;;;;;;;43.80;20.45;;;-7.80;99.90;;;;;;4149168;28;20092;-63
2024/01/11 02:16:21;;;;;;;64.50;20.60;;;-7.80;99.90;;;;;;4148685;28;20034;-62
2024/01/11 02:18:22;;;;;;;52.35;21.27;;;-7.70;99.90;;;;;;4147391;28;20037;-59
2024/01/11 02:20:23;;;;;;;47.97;20.88;;;-7.70;99.90;;;;;;4148784;28;20084;-63
2024/01/11 02:22:31;;;;;;;49.50;20.02;;;-7.70;99.90;;;;;;4148996;28;20049;-61
2024/01/11 02:24:32;;;;;;;44.60;18.42;;;-7.60;99.90;;;;;;4147587;28;20042;-62
2024/01/11 02:26:34;;;;;;;48.05;19.77;;;-7.60;99.90;;;;;;4148648;28;20033;-61
2024/01/11 02:28:35;;;;;;;43.92;18.95;;;-7.60;99.90;;;;;;4148753;28;20123;-63
2024/01/11 02:30:36;;;;;;;44.75;21.65;;;-7.60;99.90;;;;;;4148719;28;20096;-63
2024/01/11 02:32:38;;;;;;;52.05;20.10;;;-7.60;99.90;;;;;;4149037;28;20064;-61
2024/01/11 02:34:40;;;;;;;53.40;19.70;;;-7.60;99.90;;;;;;4148435;28;20025;-62
2024/01/11 02:36:41;;;;;;;52.08;20.52;;;-7.70;99.90;;;;;;4148807;28;20371;-62
2024/01/11 02:38:43;;;;;;;50.40;22.13;;;-7.70;99.90;;;;;;4148920;28;20473;-62
2024/01/11 02:40:45;;;;;;;49.90;21.73;;;-7.70;99.90;;;;;;4149102;28;20034;-63
2024/01/11 02:42:46;;;;;;;50.47;21.70;;;-7.80;99.90;;;;;;4147679;28;20532;-61
2024/01/11 02:44:48;;;;;;;49.83;21.42;;;-7.80;99.90;;;;;;4149291;28;20053;-62
2024/01/11 02:46:49;;;;;;;47.65;20.60;;;-7.80;99.90;;;;;;4148288;28;20045;-60
2024/01/11 02:48:51;;;;;;;46.90;20.77;;;-7.80;99.90;;;;;;4148884;28;20100;-63
2024/01/11 02:50:52;;;;;;;48.40;19.95;;;-7.80;99.90;;;;;;4149078;28;20445;-63
2024/01/11 02:52:53;;;;;;;42.22;18.02;;;-7.90;99.90;;;;;;4148494;28;20033;-64
2024/01/11 02:54:55;;;;;;;42.35;18.95;;;-7.80;99.90;;;;;;4148441;28;20022;-57
2024/01/11 02:56:57;;;;;;;48.53;20.17;;;-7.80;99.90;;;;;;4148257;28;20030;-61
2024/01/11 02:58:58;;;;;;;47.22;18.55;;;-7.80;99.90;;;;;;4147196;28;20029;-62
2024/01/11 03:00:59;;;;;;;40.25;16.73;;;-7.80;99.90;;;;;;4148206;28;20453;-61
2024/01/11 03:03:01;;;;;;;36.08;16.33;;;-7.80;99.90;;;;;;4147537;28;20823;-63
2024/01/11 03:05:02;;;;;;;40.97;18.02;;;-7.70;99.90;;;;;;4148375;28;20034;-64
2024/01/11 03:07:03;;;;;;;44.63;18.45;;;-7.80;99.90;;;;;;4148984;28;20584;-60
2024/01/11 03:09:04;;;;;;;42.83;18.10;;;-7.70;99.90;;;;;;4146924;28;20501;-63
2024/01/11 03:11:06;;;;;;;44.83;17.65;;;-7.70;99.90;;;;;;4147022;28;20049;-60
2024/01/11 03:13:07;;;;;;;44.45;18.23;;;-7.70;99.90;;;;;;4145873;28;20092;-63
2024/01/11 03:15:09;;;;;;;47.00;16.65;;;-7.70;99.90;;;;;;4146582;28;20038;-62
2024/01/11 03:17:10;;;;;;;38.25;16.67;;;-7.70;99.90;;;;;;4145748;28;20038;-62
2024/01/11 03:19:11;;;;;;;36.05;16.73;;;-7.70;99.90;;;;;;4146170;28;20042;-63
2024/01/11 03:21:12;;;;;;;36.90;16.75;;;-7.80;99.90;;;;;;4145474;28;20021;-59
2024/01/11 03:23:13;;;;;;;38.13;16.48;;;-7.80;99.90;;;;;;4145790;28;20037;-61
2024/01/11 03:25:15;;;;;;;41.28;18.17;;;-7.80;99.90;;;;;;4145930;28;20169;-63
2024/01/11 03:27:16;;;;;;;43.55;18.15;;;-7.80;99.90;;;;;;4145262;28;20516;-62
2024/01/11 03:29:17;;;;;;;36.58;16.77;;;-7.80;99.90;;;;;;4145926;28;20049;-63
2024/01/11 03:31:19;;;;;;;39.45;17.70;;;-7.80;99.90;;;;;;4145518;28;20069;-62
2024/01/11 03:33:20;;;;;;;40.75;17.15;;;-7.80;99.90;;;;;;4145335;28;20034;-62
2024/01/11 03:35:21;;;;;;;36.92;17.35;;;-7.80;99.90;;;;;;4145020;28;20042;-64
2024/01/11 03:37:22;;;;;;;37.22;17.27;;;-7.80;99.90;;;;;;4145387;28;20053;-61
2024/01/11 03:39:25;;;;;;;39.38;16.83;;;-7.90;99.90;;;;;;4145824;28;20038;-61
2024/01/11 03:41:26;;;;;;;40.85;16.90;;;-7.90;99.90;;;;;;4145812;28;20481;-64
2024/01/11 03:43:27;;;;;;;35.75;16.10;;;-7.80;99.90;;;;;;4144821;28;20049;-62
2024/01/11 03:45:28;;;;;;;38.72;17.35;;;-7.80;99.90;;;;;;4146166;28;20018;-62
2024/01/11 03:47:30;;;;;;;40.92;17.25;;;-7.80;99.90;;;;;;4145433;28;20073;-61
2024/01/11 03:49:31;;;;;;;40.15;17.35;;;-7.90;99.90;;;;;;4145978;28;20037;-63
2024/01/11 03:51:32;;;;;;;50.95;17.45;;;-7.90;99.90;;;;;;4145362;28;20457;-63
2024/01/11 03:53:37;;;;;;;40.85;16.75;;;-8.00;99.90;;;;;;4145562;28;20096;-63
2024/01/11 03:55:38;;;;;;;37.45;16.42;;;-8.00;99.90;;;;;;4131683;28;20038;-61
2024/01/11 03:57:39;;;;;;;38.05;15.75;;;-8.10;99.90;;;;;;4145330;28;20068;-63
2024/01/11 03:59:40;;;;;;;37.28;17.38;;;-8.20;99.90;;;;;;4145203;28;20088;-62
2024/01/11 04:01:42;;;;;;;39.95;16.58;;;-8.30;99.90;;;;;;4145185;28;20042;-62
2024/01/11 04:03:43;;;;;;;40.42;16.75;;;-8.30;99.90;;;;;;4145278;28;20563;-61
2024/01/11 04:05:44;;;;;;;41.47;15.77;;;-8.40;99.90;;;;;;4144566;28;20128;-64
2024/01/11 04:07:45;;;;;;;39.97;15.68;;;-8.40;99.90;;;;;;4145429;28;20561;-63
2024/01/11 04:09:47;;;;;;;39.33;16.52;;;-8.50;99.90;;;;;;4145412;28;20050;-64
2024/01/11 04:11:48;;;;;;;37.88;17.75;;;-8.50;99.90;;;;;;4145768;28;20050;-62
2024/01/11 04:13:49;;;;;;;42.42;17.65;;;-8.50;99.90;;;;;;4145025;28;20092;-63
2024/01/11 04:15:50;;;;;;;43.35;20.27;;;-8.50;99.90;;;;;;4145333;28;20462;-62
2024/01/11 04:17:51;;;;;;;43.38;18.52;;;-8.50;99.90;;;;;;4144627;28;20034;-60
2024/01/11 04:19:53;;;;;;;40.72;18.60;;;-8.50;99.90;;;;;;4145588;28;20043;-61
2024/01/11 04:21:54;;;;;;;47.50;18.23;;;-8.40;99.90;;;;;;4143648;28;20088;-62
2024/01/11 04:23:56;;;;;;;43.55;17.48;;;-8.40;99.90;;;;;;4144647;28;20654;-59
2024/01/11 04:25:57;;;;;;;46.50;18.73;;;-8.40;99.90;;;;;;4144736;28;20031;-63
2024/01/11 04:27:58;;;;;;;48.33;20.63;;;-8.40;99.90;;;;;;4144518;28;20112;-63
2024/01/11 04:29:59;;;;;;;41.75;18.95;;;-8.40;99.90;;;;;;4145062;28;20038;-63
2024/01/11 04:32:01;;;;;;;44.10;19.40;;;-8.40;99.90;;;;;;4144562;28;20049;-63
2024/01/11 04:34:02;;;;;;;47.45;19.80;;;-8.40;99.90;;;;;;4144761;28;20136;-64
2024/01/11 04:36:04;;;;;;;46.08;20.05;;;-8.40;99.90;;;;;;4144448;28;20548;-62
2024/01/11 04:38:05;;;;;;;49.33;22.27;;;-8.50;99.90;;;;;;4144453;28;20370;-61
2024/01/11 04:40:07;;;;;;;50.08;22.10;;;-8.50;99.90;;;;;;4145049;28;20442;-64
2024/01/11 04:42:08;;;;;;;43.22;18.00;;;-8.50;99.90;;;;;;4144924;28;20096;-61
2024/01/11 04:44:10;;;;;;;46.92;18.02;;;-8.60;99.90;;;;;;4144196;28;20084;-61
2024/01/11 04:46:22;;;;;;;49.00;18.85;;;-8.70;99.90;;;;;;4145198;28;20041;-61
2024/01/11 04:48:23;;;;;;;44.17;18.58;;;-8.80;99.90;;;;;;4143750;28;20112;-61
2024/01/11 04:50:24;;;;;;;50.63;19.38;;;-8.80;99.90;;;;;;4144668;28;20034;-61
2024/01/11 04:52:26;;;;;;;45.08;19.52;;;-8.80;99.90;;;;;;4144001;28;20557;-61
2024/01/11 04:54:27;;;;;;;41.70;19.48;;;-8.90;99.90;;;;;;4144554;28;20437;-62
2024/01/11 04:56:30;;;;;;;45.08;19.67;;;-8.90;99.90;;;;;;4143717;28;20081;-62
2024/01/11 04:58:31;;;;;;;47.10;21.02;;;-8.90;99.90;;;;;;4144611;28;20482;-60
2024/01/11 05:00:32;;;;;;;49.45;20.30;;;-8.90;99.90;;;;;;4144010;28;20022;-63
2024/01/11 05:02:34;;;;;;;44.33;20.48;;;-8.90;99.90;;;;;;4143876;28;20026;-63
2024/01/11 05:04:35;;;;;;;54.25;24.08;;;-9.00;99.90;;;;;;4144045;28;20037;-60
2024/01/11 05:06:36;;;;;;;51.72;20.92;;;-9.00;99.90;;;;;;4143371;28;20080;-60
2024/01/11 05:08:38;;;;;;;54.30;21.65;;;-9.00;99.90;;;;;;4144336;28;20042;-63
2024/01/11 05:10:39;;;;;;;65.00;22.80;;;-9.00;99.90;;;;;;4144053;28;20104;-64
2024/01/11 05:12:40;;;;;;;50.40;21.30;;;-9.00;99.90;;;;;;4143107;28;20390;-63
2024/01/11 05:14:41;;;;;;;59.55;24.85;;;-9.00;99.90;;;;;;4143354;28;20425;-63
2024/01/11 05:16:43;;;;;;;57.80;24.58;;;-8.90;99.90;;;;;;4143998;28;20041;-61
2024/01/11 05:18:44;;;;;;;64.03;26.92;;;-9.00;99.90;;;;;;4143599;28;20072;-61
2024/01/11 05:20:45;;;;;;;59.03;26.10;;;-9.00;99.90;;;;;;4144042;28;20072;-62
2024/01/11 05:22:47;;;;;;;61.40;25.15;;;-9.00;99.90;;;;;;4143483;28;20480;-61
2024/01/11 05:24:48;;;;;;;64.78;27.83;;;-8.90;99.90;;;;;;4143864;28;20030;-59
2024/01/11 05:26:49;;;;;;;64.03;27.95;;;-9.00;99.90;;;;;;4143188;28;20042;-60
2024/01/11 05:28:50;;;;;;;70.50;29.88;;;-9.00;99.90;;;;;;4143932;28;20042;-62
2024/01/11 05:30:51;;;;;;;73.10;31.67;;;-9.00;99.90;;;;;;4143676;28;20038;-61
2024/01/11 05:32:53;;;;;;;67.90;28.10;;;-9.10;99.90;;;;;;4143537;28;20057;-62
2024/01/11 05:34:54;;;;;;;66.72;30.02;;;-9.10;99.90;;;;;;4143818;28;20490;-63
2024/01/11 05:36:55;;;;;;;72.55;30.75;;;-9.10;99.90;;;;;;4143344;28;20104;-62
2024/01/11 05:38:56;;;;;;;73.63;29.80;;;-9.10;99.90;;;;;;4144332;28;20441;-62
2024/01/11 05:40:58;;;;;;;82.97;33.47;;;-9.10;99.90;;;;;;4143264;28;20025;-62
2024/01/11 05:42:59;;;;;;;78.03;33.42;;;-9.10;99.90;;;;;;4143677;28;20397;-62
2024/01/11 05:45:00;;;;;;;82.85;34.13;;;-9.00;99.90;;;;;;4143411;28;20433;-61
2024/01/11 05:47:02;;;;;;;77.75;30.38;;;-9.00;99.90;;;;;;4144240;28;20049;-62
2024/01/11 05:49:03;;;;;;;70.40;29.95;;;-8.90;99.90;;;;;;4141789;28;20034;-62
2024/01/11 05:51:04;;;;;;;75.30;31.83;;;-8.90;99.90;;;;;;4144147;28;20359;-61
2024/01/11 05:53:06;;;;;;;79.97;33.50;;;-8.80;99.90;;;;;;4143538;28;20502;-62
2024/01/11 05:55:07;;;;;;;79.40;30.90;;;-8.80;99.90;;;;;;4144193;28;20095;-60
2024/01/11 05:57:08;;;;;;;80.13;31.80;;;-8.80;99.90;;;;;;4143341;28;20018;-60
2024/01/11 05:59:09;;;;;;;75.72;29.70;;;-8.80;99.90;;;;;;4137971;28;20478;-61
2024/01/11 06:01:10;;;;;;;74.30;30.27;;;-8.80;99.90;;;;;;4143602;28;20084;-61
2024/01/11 06:03:13;;;;;;;76.05;29.30;;;-8.90;99.90;;;;;;4143625;28;20468;-61
2024/01/11 06:05:15;;;;;;;69.65;29.90;;;-9.00;99.90;;;;;;4143135;28;20026;-57
2024/01/11 06:07:16;;;;;;;58.55;26.85;;;-9.00;99.90;;;;;;4143392;28;20041;-60
2024/01/11 06:09:17;;;;;;;73.70;29.13;;;-9.10;99.90;;;;;;4143673;28;20037;-61
2024/01/11 06:11:18;;;;;;;78.05;28.38;;;-9.10;99.90;;;;;;4143223;28;20100;-59
2024/01/11 06:13:19;;;;;;;83.75;31.38;;;-9.10;99.90;;;;;;4142279;28;20184;-61
2024/01/11 06:15:21;;;;;;;75.32;31.70;;;-9.10;99.90;;;;;;4143166;28;20037;-58
2024/01/11 06:17:22;;;;;;;79.55;31.20;;;-9.10;99.90;;;;;;4143881;28;20096;-60
2024/01/11 06:19:23;;;;;;;81.60;31.95;;;-9.00;99.90;;;;;;4142665;28;20085;-60
2024/01/11 06:21:24;;;;;;;89.88;34.40;;;-8.90;99.90;;;;;;4143858;28;20026;-60
2024/01/11 06:23:26;;;;;;;80.15;32.63;;;-8.80;99.90;;;;;;4142850;28;20053;-60
2024/01/11 06:25:27;;;;;;;78.75;33.50;;;-8.70;99.90;;;;;;4143809;28;20026;-59
2024/01/11 06:27:28;;;;;;;100.35;42.85;;;-8.60;99.90;;;;;;4142884;28;20092;-57
2024/01/11 06:29:30;;;;;;;116.57;45.20;;;-8.40;99.90;;;;;;4143872;28;20521;-61
2024/01/11 06:31:31;;;;;;;98.95;43.90;;;-8.00;99.90;;;;;;4143180;28;20100;-57
2024/01/11 06:33:36;;;;;;;99.90;41.75;;;-7.70;99.90;;;;;;4143490;28;20034;-62
2024/01/11 06:35:37;;;;;;;98.82;39.78;;;-7.30;99.90;;;;;;4143258;28;20077;-60
2024/01/11 06:37:39;;;;;;;89.32;35.45;;;-7.00;99.90;;;;;;4143371;28;20037;-59
2024/01/11 06:39:40;;;;;;;79.93;34.17;;;-6.80;99.90;;;;;;4144076;28;20042;-61
2024/01/11 06:41:41;;;;;;;74.55;33.38;;;-6.50;99.90;;;;;;4143284;28;20088;-63
2024/01/11 06:43:42;;;;;;;78.85;33.42;;;-6.30;99.90;;;;;;4143640;28;20088;-60
2024/01/11 06:45:43;;;;;;;71.10;31.65;;;-6.10;99.90;;;;;;4145983;28;20452;-59
2024/01/11 06:47:48;;;;;;;70.55;31.23;;;-6.20;99.90;;;;;;4146535;28;20057;-55
2024/01/11 06:49:50;;;;;;;77.28;32.47;;;-6.10;99.90;;;;;;4145646;28;20034;-62
2024/01/11 06:51:51;;;;;;;76.78;33.63;;;-6.10;99.90;;;;;;4146314;28;20088;-60
2024/01/11 06:53:52;;;;;;;76.90;31.02;;;-5.90;99.90;;;;;;4145725;28;20045;-58
2024/01/11 06:55:53;;;;;;;71.10;30.48;;;-5.80;99.90;;;;;;4146772;28;20172;-60
2024/01/11 06:57:55;;;;;;;65.88;31.15;;;-5.70;99.90;;;;;;4145572;28;20026;-56
2024/01/11 06:59:56;;;;;;;67.60;31.67;;;-5.50;99.90;;;;;;4145186;28;20108;-59
2024/01/11 07:01:57;;;;;;;75.73;32.40;;;-5.30;99.90;;;;;;4146012;28;20349;-59
2024/01/11 07:03:58;;;;;;;70.57;31.80;;;-5.00;99.90;;;;;;4146301;28;20341;-59
2024/01/11 07:06:00;;;;;;;74.70;33.30;;;-4.70;99.90;;;;;;4146159;28;20402;-59
2024/01/11 07:08:01;;;;;;;79.00;33.07;;;-4.60;99.90;;;;;;4145763;28;20291;-56
2024/01/11 07:10:05;;;;;;;85.03;32.67;;;-4.40;99.90;;;;;;4146314;28;20739;-60
2024/01/11 07:12:06;;;;;;;71.93;33.83;;;-4.10;99.90;;;;;;4145776;28;20318;-58
2024/01/11 07:14:07;;;;;;;75.47;34.07;;;-3.80;99.90;;;;;;4146082;28;20771;-58
2024/01/11 07:16:09;;;;;;;74.37;32.83;;;-3.70;99.90;;;;;;4145824;28;20281;-60
2024/01/11 07:18:10;;;;;;;79.87;30.97;;;-3.50;99.90;;;;;;4145852;28;20330;-60
2024/01/11 07:20:13;;;;;;;63.77;32.27;;;-3.30;99.90;;;;;;4145653;28;20321;-61
2024/01/11 07:22:14;;;;;;;63.27;30.47;;;-3.00;99.90;;;;;;4146050;28;20259;-60
2024/01/11 07:24:15;;;;;;;72.17;38.33;;;-3.10;99.90;;;;;;4145524;28;20268;-59
2024/01/11 07:26:16;;;;;;;69.13;33.77;;;-3.00;99.90;;;;;;4146152;28;20337;-61
2024/01/11 07:28:19;;;;;;;90.07;41.73;;;-2.90;99.90;;;;;;4144979;28;20291;-60
2024/01/11 07:30:20;;;;;;;64.90;32.63;;;-2.70;99.90;;;;;;4146218;28;20292;-62
2024/01/11 07:32:21;;;;;;;64.23;29.83;;;-2.70;99.90;;;;;;4145517;28;20272;-60
2024/01/11 07:34:24;;;;;;;62.97;31.10;;;-2.70;99.90;;;;;;4146057;28;21258;-62
2024/01/11 07:36:25;;;;;;;61.77;28.07;;;-2.70;99.90;;;;;;4145568;28;20345;-60
2024/01/11 07:38:26;;;;;;;54.83;28.33;;;-2.50;99.90;;;;;;4145717;28;20651;-54
2024/01/11 07:40:28;;;;;;;53.57;26.77;;;-2.50;99.90;;;;;;4145984;28;20322;-57
2024/01/11 07:42:29;;;;;;;59.27;28.03;;;-2.30;99.90;;;;;;4145241;28;20279;-56
2024/01/11 07:44:31;;;;;;;79.17;37.73;;;-2.10;99.90;;;;;;4145660;28;20679;-60
2024/01/11 07:46:32;;;;;;;62.43;30.07;;;-1.90;99.90;;;;;;4145401;28;20272;-59
2024/01/11 07:48:33;;;;;;;66.37;34.43;;;-1.70;99.90;;;;;;4145498;28;20287;-61
2024/01/11 07:50:35;;;;;;;60.87;28.63;;;-1.50;99.90;;;;;;4145010;28;20616;-61
2024/01/11 07:52:36;;;;;;;57.93;30.17;;;-1.40;99.90;;;;;;4145326;28;20372;-60
2024/01/11 07:54:38;;;;;;;61.33;29.23;;;-1.40;99.90;;;;;;4144836;28;20334;-60
2024/01/11 07:56:40;;;;;;;74.17;38.13;;;-1.30;99.90;;;;;;4145308;28;20318;-59
2024/01/11 07:58:41;;;;;;;74.33;36.43;;;-1.30;99.90;;;;;;4144702;28;20251;-57
2024/01/11 08:00:42;;;;;;;73.50;36.00;;;-1.00;99.90;;;;;;4145605;28;20341;-60
2024/01/11 08:02:44;;;;;;;57.97;28.30;;;-0.80;99.90;;;;;;4144836;28;20836;-61
2024/01/11 08:04:45;;;;;;;56.27;27.63;;;-0.40;99.90;;;;;;4145735;28;20759;-60
2024/01/11 08:06:46;;;;;;;58.83;27.13;;;-1.00;99.90;;;;;;4144939;28;20272;-60
2024/01/11 08:08:51;;;;;;;55.97;29.80;;;-1.40;99.90;;;;;;4145200;28;20341;-61
2024/01/11 08:10:52;;;;;;;58.00;29.67;;;-1.70;99.90;;;;;;4145440;28;20322;-57
2024/01/11 08:12:55;;;;;;;59.33;31.07;;;-2.00;99.90;;;;;;4144876;28;20747;-60
2024/01/11 08:14:56;;;;;;;60.80;28.83;;;-2.00;99.90;;;;;;4145111;28;20286;-60
2024/01/11 08:16:58;;;;;;;63.53;30.87;;;-1.90;99.90;;;;;;4144980;28;20719;-60
2024/01/11 08:19:00;;;;;;;65.43;29.97;;;-1.80;99.90;;;;;;4145075;28;20283;-59
2024/01/11 08:21:02;;;;;;;71.37;30.83;;;-1.60;99.90;;;;;;4144732;28;20441;-61
2024/01/11 08:23:03;;;;;;;84.13;32.83;;;-1.40;99.90;;;;;;4145061;28;20393;-61
2024/01/11 08:25:05;;;;;;;74.03;32.70;;;-1.70;99.90;;;;;;4144499;28;20341;-62
2024/01/11 08:27:06;;;;;;;73.03;31.63;;;-1.60;99.90;;;;;;4144873;28;20279;-59
2024/01/11 08:29:09;;;;;;;58.40;28.03;;;-1.70;99.90;;;;;;4144334;28;20291;-61
2024/01/11 08:31:10;;;;;;;56.83;27.57;;;-2.00;99.90;;;;;;4145388;28;20326;-60
2024/01/11 08:33:11;;;;;;;63.63;27.73;;;-2.20;99.90;;;;;;4144496;28;20322;-61
2024/01/11 08:35:12;;;;;;;51.93;25.07;;;-1.80;99.90;;;;;;4145308;28;20319;-57
2024/01/11 08:37:14;;;;;;;49.47;23.30;;;-1.40;99.90;;;;;;4144340;28;20263;-59
2024/01/11 08:39:16;;;;;;;50.17;23.67;;;-0.70;99.90;;;;;;4145249;28;20275;-59
2024/01/11 08:41:17;;;;;;;44.17;21.20;;;-0.40;99.90;;;;;;4144499;28;20275;-57
2024/01/11 08:43:18;;;;;;;51.63;24.03;;;-0.60;99.90;;;;;;4144651;28;20318;-61
2024/01/11 08:45:20;;;;;;;51.23;22.93;;;-0.60;99.90;;;;;;4144616;28;20333;-57
2024/01/11 08:47:21;;;;;;;43.90;22.03;;;-0.40;99.90;;;;;;4144833;28;20314;-59
2024/01/11 08:49:22;;;;;;;48.30;21.10;;;-0.10;99.90;;;;;;4144560;28;20363;-61
2024/01/11 08:51:24;;;;;;;44.57;21.47;;;0.10;99.90;;;;;;4144553;28;20276;-60
2024/01/11 08:53:25;;;;;;;46.00;20.00;;;0.10;99.90;;;;;;4144719;28;20288;-60
2024/01/11 08:55:26;;;;;;;38.97;17.27;;;0.30;99.90;;;;;;4144125;28;20318;-58
2024/01/11 08:57:27;;;;;;;35.87;17.27;;;0.40;99.90;;;;;;4143187;28;20275;-58
2024/01/11 08:59:29;;;;;;;35.37;17.43;;;0.50;99.90;;;;;;4143917;28;20267;-61
2024/01/11 09:01:30;;;;;;;39.03;17.00;;;0.70;99.90;;;;;;4144894;28;20322;-61
2024/01/11 09:03:31;;;;;;;50.73;22.93;;;0.90;99.90;;;;;;4143865;28;20655;-61
2024/01/11 09:05:32;;;;;;;46.63;23.47;;;0.70;99.90;;;;;;4144950;28;20256;-60
2024/01/11 09:07:33;;;;;;;52.77;23.43;;;0.40;99.90;;;;;;4143316;28;20390;-61
2024/01/11 09:09:35;;;;;;;57.97;23.43;;;0.30;99.90;;;;;;4144726;28;20790;-61
2024/01/11 09:11:36;;;;;;;47.90;23.10;;;0.30;99.90;;;;;;4143951;28;20667;-60
2024/01/11 09:13:38;;;;;;;48.17;24.53;;;0.30;99.90;;;;;;4144307;28;20680;-59
2024/01/11 09:15:39;;;;;;;54.00;23.40;;;0.20;99.90;;;;;;4143899;28;20302;-61
2024/01/11 09:17:40;;;;;;;52.73;25.17;;;0.10;99.90;;;;;;4144221;28;20744;-62
2024/01/11 09:19:41;;;;;;;48.07;23.37;;;-0.10;99.90;;;;;;4143949;28;20667;-55
2024/01/11 09:21:43;;;;;;;44.73;23.37;;;-0.20;99.90;;;;;;4144021;28;20303;-61
2024/01/11 09:23:44;;;;;;;46.23;21.63;;;-0.60;99.90;;;;;;4144030;28;20822;-61
2024/01/11 09:25:45;;;;;;;51.20;23.60;;;-0.50;99.90;;;;;;4143882;28;20330;-60
2024/01/11 09:27:46;;;;;;;43.30;21.20;;;-0.60;99.90;;;;;;4143716;28;20317;-59
2024/01/11 09:29:48;;;;;;;43.10;22.03;;;-0.70;99.90;;;;;;4143498;28;20703;-60
2024/01/11 09:31:49;;;;;;;39.23;21.43;;;-0.80;99.90;;;;;;4144450;28;20272;-61
2024/01/11 09:33:50;;;;;;;49.67;21.00;;;-0.90;99.90;;;;;;4143474;28;20301;-59
2024/01/11 09:35:51;;;;;;;36.57;19.17;;;-1.20;99.90;;;;;;4144021;28;20283;-59
2024/01/11 09:37:53;;;;;;;52.67;21.87;;;-1.30;99.90;;;;;;4143287;28;20313;-60
2024/01/11 09:39:54;;;;;;;48.00;20.27;;;-1.50;99.90;;;;;;4144641;28;20806;-59
2024/01/11 09:42:03;;;;;;;43.67;19.73;;;-1.50;99.90;;;;;;4143506;28;20632;-59
2024/01/11 09:44:05;;;;;;;40.83;19.33;;;-1.60;99.90;;;;;;4143612;28;20748;-60
2024/01/11 09:46:07;;;;;;;45.53;19.47;;;-1.50;99.90;;;;;;4143609;28;20275;-60
2024/01/11 09:48:09;;;;;;;42.70;19.87;;;-1.60;99.90;;;;;;4143878;28;20679;-61
2024/01/11 09:50:17;;;;;;;36.03;16.50;;;-1.60;99.90;;;;;;4143433;28;20357;-60
2024/01/11 09:52:21;;;;;;;36.20;17.00;;;-1.60;99.90;;;;;;4143617;28;20275;-61
2024/01/11 09:54:24;;;;;;;46.83;21.37;;;-1.70;99.90;;;;;;4143498;28;20398;-60
2024/01/11 09:56:27;;;;;;;47.87;22.47;;;-1.80;99.90;;;;;;4143313;28;20267;-62
2024/01/11 09:58:29;;;;;;;49.57;21.67;;;-1.90;99.90;;;;;;4143877;28;20295;-60
2024/01/11 10:00:31;;;;;;;51.23;21.40;;;-2.00;99.90;;;;;;4143630;28;20326;-59
2024/01/11 10:02:32;;;;;;;45.63;20.77;;;-2.10;99.90;;;;;;4143799;28;20736;-60
2024/01/11 10:04:33;;;;;;;55.80;25.73;;;-2.20;99.90;;;;;;4143412;28;20679;-60
2024/01/11 10:06:38;;;;;;;46.27;21.27;;;-2.30;99.90;;;;;;4143719;28;20318;-57
2024/01/11 10:08:39;;;;;;;53.57;24.60;;;-2.20;99.90;;;;;;4143177;28;20287;-60
2024/01/11 10:10:41;;;;;;;53.83;24.07;;;-2.20;99.90;;;;;;4144235;28;20271;-58
2024/01/11 10:12:43;;;;;;;60.17;25.60;;;-2.20;99.90;;;;;;4143082;28;20271;-61
2024/01/11 10:14:44;;;;;;;56.63;26.10;;;-2.20;99.90;;;;;;4143826;28;20283;-59
2024/01/11 10:16:45;;;;;;;57.80;25.90;;;-2.10;99.90;;;;;;4143322;28;20747;-62